createdAt,value
2022-08-27T09:07:52.281Z,26.90
2022-08-27T09:10:32.602Z,27.40
2022-08-27T09:13:04.227Z,27.60
2022-08-27T09:15:36.002Z,27.60
2022-08-27T09:18:14.356Z,27.40
2022-08-27T09:20:46.212Z,27.40
2022-08-27T09:23:22.390Z,27.30
2022-08-27T09:25:50.558Z,27.00
2022-08-27T09:28:43.311Z,27.00
2022-08-27T09:31:14.240Z,26.40
2022-08-27T09:33:56.722Z,26.00
2022-08-27T09:36:26.510Z,25.80
2022-08-27T09:39:00.421Z,25.60
2022-08-27T09:41:32.303Z,25.40
2022-08-27T09:44:03.479Z,25.50
2022-08-27T09:46:31.756Z,25.40
2022-08-27T09:49:10.686Z,25.20
2022-08-27T09:51:42.085Z,25.20
2022-08-27T09:54:13.538Z,25.20
2022-08-27T09:56:48.353Z,25.00
2022-08-27T09:59:24.433Z,25.00
2022-08-27T10:01:55.640Z,25.00
2022-08-27T10:04:28.829Z,24.80
2022-08-27T10:06:57.533Z,24.60
2022-08-27T10:09:34.355Z,24.70
2022-08-27T10:12:17.784Z,24.60
2022-08-27T10:14:51.414Z,24.50
2022-08-27T10:17:28.086Z,24.30
2022-08-27T10:20:05.616Z,24.40
2022-08-27T10:22:42.752Z,24.40
2022-08-27T10:25:21.867Z,24.30
2022-08-27T10:28:00.504Z,24.20
2022-08-27T10:30:40.529Z,24.10
2022-08-27T10:33:14.888Z,24.20
2022-08-27T10:35:55.026Z,24.30
2022-08-27T10:38:25.839Z,24.40
2022-08-27T10:40:59.989Z,24.30
2022-08-27T10:43:52.712Z,24.30
2022-08-27T10:46:51.812Z,24.50
2022-08-27T10:49:26.497Z,24.70
2022-08-27T10:52:07.706Z,24.80
2022-08-27T10:54:42.312Z,24.80
2022-08-27T10:57:39.917Z,25.00
2022-08-27T11:00:16.374Z,25.20
2022-08-27T11:02:45.569Z,25.70
2022-08-27T11:05:18.716Z,25.80
2022-08-27T11:07:52.642Z,25.90
2022-08-27T11:10:25.522Z,26.10
2022-08-27T11:13:00.450Z,26.40
2022-08-27T11:15:31.964Z,26.70
2022-08-27T11:18:05.709Z,26.90
2022-08-27T11:20:40.845Z,26.90
2022-08-27T11:23:14.734Z,27.40
2022-08-27T11:25:50.973Z,27.70
2022-08-27T11:28:30.008Z,27.10
2022-08-27T11:31:07.359Z,26.90
2022-08-27T11:33:46.125Z,27.00
2022-08-27T11:36:54.202Z,26.80
2022-08-27T11:39:38.545Z,26.60
2022-08-27T11:42:10.956Z,26.80
2022-08-27T11:44:45.633Z,27.00
2022-08-27T11:47:16.786Z,27.20
2022-08-27T11:49:48.165Z,27.50
2022-08-27T11:52:25.266Z,28.00
2022-08-27T11:54:58.751Z,28.40
2022-08-27T11:57:30.934Z,28.50
2022-08-27T12:00:12.862Z,28.90
2022-08-27T12:02:41.307Z,28.70
2022-08-27T12:05:24.482Z,28.20
2022-08-27T12:07:54.933Z,28.20
2022-08-27T12:10:34.318Z,28.60
2022-08-27T12:13:18.316Z,28.70
2022-08-27T12:15:56.454Z,28.10
2022-08-27T12:18:42.785Z,27.60
2022-08-27T12:21:20.843Z,27.80
2022-08-27T12:24:05.605Z,27.90
2022-08-27T12:26:36.155Z,28.20
2022-08-27T12:29:29.343Z,27.70
2022-08-27T12:32:06.548Z,27.60
2022-08-27T12:34:45.116Z,27.50
2022-08-27T12:37:14.767Z,27.40
2022-08-27T12:39:49.598Z,27.20
2022-08-27T12:42:22.840Z,27.10
2022-08-27T12:44:55.709Z,26.90
2022-08-27T12:47:25.785Z,26.80
2022-08-27T12:49:57.800Z,26.80
2022-08-27T12:52:44.175Z,26.50
2022-08-27T12:55:24.185Z,25.80
2022-08-27T12:58:01.700Z,25.10
2022-08-27T13:00:39.695Z,24.60
2022-08-27T13:03:32.674Z,24.50
2022-08-27T13:06:02.062Z,24.40
2022-08-27T13:08:32.989Z,24.20
2022-08-27T13:11:12.283Z,24.00
2022-08-27T13:13:42.950Z,24.00
2022-08-27T13:16:11.545Z,23.90
2022-08-27T13:18:41.805Z,23.80
2022-08-27T13:21:18.002Z,23.90
2022-08-27T13:23:47.462Z,24.00
2022-08-27T13:26:16.049Z,24.30
2022-08-27T13:28:46.211Z,24.50
2022-08-27T13:31:16.117Z,24.50
2022-08-27T13:33:47.324Z,24.80
2022-08-27T13:36:15.604Z,25.20
2022-08-27T13:38:50.299Z,25.80
2022-08-27T13:41:26.089Z,26.10
2022-08-27T13:43:59.010Z,26.40
2022-08-27T13:46:28.271Z,26.90
2022-08-27T13:49:00.299Z,27.20
2022-08-27T13:51:32.024Z,27.00
2022-08-27T13:54:18.647Z,26.60
2022-08-27T13:57:08.248Z,26.30
2022-08-27T13:59:42.141Z,26.00
2022-08-27T14:02:25.849Z,26.10
2022-08-27T14:05:11.310Z,25.90
2022-08-27T14:07:44.870Z,25.80
2022-08-27T14:10:30.829Z,25.90
2022-08-27T14:13:01.648Z,25.80
2022-08-27T14:15:34.242Z,25.60
2022-08-27T14:18:04.074Z,25.30
2022-08-27T14:20:34.200Z,25.40
2022-08-27T14:23:02.609Z,25.50
2022-08-27T14:25:34.748Z,25.70
2022-08-27T14:28:03.239Z,26.00
2022-08-27T14:30:31.484Z,25.70
2022-08-27T14:33:00.681Z,25.80
2022-08-27T14:35:30.155Z,26.00
2022-08-27T14:38:00.895Z,26.30
2022-08-27T14:40:29.253Z,26.50
2022-08-27T14:42:57.726Z,26.50
2022-08-27T14:45:25.964Z,26.40
2022-08-27T14:47:54.543Z,26.10
2022-08-27T14:50:30.465Z,25.50
2022-08-27T14:53:00.266Z,25.20
2022-08-27T14:55:28.649Z,25.10
2022-08-27T14:57:56.914Z,25.10
2022-08-27T15:00:25.987Z,25.20
2022-08-27T15:02:55.692Z,25.30
2022-08-27T15:05:24.933Z,25.60
2022-08-27T15:07:54.871Z,25.70
2022-08-27T15:10:24.473Z,25.90
2022-08-27T15:12:54.387Z,25.90
2022-08-27T15:15:26.152Z,25.90
2022-08-27T15:17:54.366Z,25.70
2022-08-27T15:20:22.712Z,25.50
2022-08-27T15:22:53.756Z,25.20
2022-08-27T15:25:24.143Z,25.10
2022-08-27T15:27:53.070Z,25.00
2022-08-27T15:30:29.003Z,25.10
2022-08-27T15:32:57.580Z,25.20
2022-08-27T15:35:28.242Z,25.30
2022-08-27T15:37:58.468Z,25.40
2022-08-27T15:40:32.049Z,25.50
2022-08-27T15:43:03.361Z,25.50
2022-08-27T15:45:32.571Z,25.30
2022-08-27T15:48:01.297Z,25.20
2022-08-27T15:50:31.336Z,25.20
2022-08-27T15:53:02.884Z,25.10
2022-08-27T15:55:34.911Z,24.90
2022-08-27T15:58:03.654Z,24.90
2022-08-27T16:00:34.362Z,25.00
2022-08-27T16:03:04.228Z,25.10
2022-08-27T16:05:36.086Z,25.20
2022-08-27T16:08:04.718Z,25.20
2022-08-27T16:10:35.480Z,24.90
2022-08-27T16:13:04.342Z,24.60
2022-08-27T16:15:34.015Z,24.60
2022-08-27T16:18:05.009Z,24.50
2022-08-27T16:20:33.540Z,24.40
2022-08-27T16:23:01.750Z,24.20
2022-08-27T16:25:30.360Z,24.20
2022-08-27T16:28:01.720Z,24.10
2022-08-27T16:30:33.271Z,24.00
2022-08-27T16:33:01.651Z,23.80
2022-08-27T16:35:29.775Z,23.60
2022-08-27T16:37:58.749Z,23.40
2022-08-27T16:40:27.352Z,23.50
2022-08-27T16:42:55.506Z,23.40
2022-08-27T16:45:26.661Z,23.40
2022-08-27T16:48:17.872Z,23.10
2022-08-27T16:50:46.486Z,23.00
2022-08-27T16:53:16.623Z,23.00
2022-08-27T16:55:47.620Z,22.90
2022-08-27T16:58:19.526Z,22.90
2022-08-27T17:00:51.932Z,22.80
2022-08-27T17:03:21.867Z,22.80
2022-08-27T17:05:50.582Z,22.90
2022-08-27T17:08:20.769Z,22.90
2022-08-27T17:10:56.425Z,22.80
2022-08-27T17:13:28.298Z,22.80
2022-08-27T17:15:58.283Z,22.90
2022-08-27T17:18:28.442Z,23.00
2022-08-27T17:20:58.048Z,22.90
2022-08-27T17:23:31.968Z,22.90
2022-08-27T17:26:00.823Z,22.70
2022-08-27T17:28:29.381Z,22.60
2022-08-27T17:31:01.121Z,22.40
2022-08-27T17:33:32.858Z,22.40
2022-08-27T17:36:01.305Z,22.30
2022-08-27T17:38:32.874Z,22.10
2022-08-27T17:41:13.324Z,22.00
2022-08-27T17:43:42.113Z,22.00
2022-08-27T17:46:13.706Z,22.00
2022-08-27T17:48:42.577Z,21.90
2022-08-27T17:51:12.497Z,21.90
2022-08-27T17:53:47.160Z,21.90
2022-08-27T17:56:15.435Z,21.90
2022-08-27T17:58:43.647Z,21.90
2022-08-27T18:01:15.280Z,21.80
2022-08-27T18:03:47.534Z,21.70
2022-08-27T18:06:16.953Z,21.60
2022-08-27T18:08:45.308Z,21.60
2022-08-27T18:11:16.301Z,21.50
2022-08-27T18:13:44.693Z,21.50
2022-08-27T18:16:14.859Z,21.40
2022-08-27T18:18:43.235Z,21.30
2022-08-27T18:21:11.361Z,21.30
2022-08-27T18:23:40.185Z,21.20
2022-08-27T18:26:13.292Z,21.20
2022-08-27T18:28:43.963Z,21.10
2022-08-27T18:31:14.451Z,21.00
2022-08-27T18:33:42.718Z,20.90
2022-08-27T18:36:11.347Z,20.80
2022-08-27T18:38:39.599Z,20.80
2022-08-27T18:41:08.925Z,20.70
2022-08-27T18:43:37.572Z,20.70
2022-08-27T18:46:07.363Z,20.50
2022-08-27T18:48:37.761Z,20.50
2022-08-27T18:51:09.220Z,20.40
2022-08-27T18:53:42.643Z,20.50
2022-08-27T18:56:11.810Z,20.30
2022-08-27T18:58:44.939Z,20.30
2022-08-27T19:01:16.840Z,20.20
2022-08-27T19:03:49.324Z,20.20
2022-08-27T19:06:20.580Z,20.10
2022-08-27T19:08:50.051Z,20.20
2022-08-27T19:11:18.400Z,20.20
2022-08-27T19:13:50.473Z,20.20
2022-08-27T19:16:23.595Z,20.20
2022-08-27T19:18:53.558Z,20.00
2022-08-27T19:21:21.941Z,20.10
2022-08-27T19:23:52.705Z,20.00
2022-08-27T19:26:24.819Z,20.00
2022-08-27T19:28:53.617Z,20.00
2022-08-27T19:31:21.786Z,20.00
2022-08-27T19:33:50.598Z,20.00
2022-08-27T19:36:23.123Z,19.90
2022-08-27T19:38:53.705Z,19.80
2022-08-27T19:41:26.029Z,19.80
2022-08-27T19:43:56.371Z,19.70
2022-08-27T19:46:26.686Z,19.70
2022-08-27T19:48:55.412Z,19.60
2022-08-27T19:51:25.275Z,19.70
2022-08-27T19:53:53.425Z,19.60
2022-08-27T19:56:22.107Z,19.50
2022-08-27T19:58:55.218Z,19.50
2022-08-27T20:01:25.219Z,19.50
2022-08-27T20:03:53.612Z,19.50
2022-08-27T20:06:28.338Z,19.30
2022-08-27T20:08:56.809Z,19.30
2022-08-27T20:11:24.942Z,19.20
2022-08-27T20:13:53.063Z,19.20
2022-08-27T20:16:21.495Z,19.10
2022-08-27T20:18:50.019Z,19.00
2022-08-27T20:21:18.085Z,19.00
2022-08-27T20:23:48.291Z,18.90
2022-08-27T20:26:16.455Z,18.90
2022-08-27T20:28:44.717Z,18.90
2022-08-27T20:31:13.363Z,18.80
2022-08-27T20:33:41.942Z,18.80
2022-08-27T20:36:10.445Z,18.90
2022-08-27T20:38:38.848Z,18.80
2022-08-27T20:41:08.971Z,18.80
2022-08-27T20:43:37.130Z,18.60
2022-08-27T20:46:05.961Z,18.50
2022-08-27T20:48:39.356Z,18.50
2022-08-27T20:51:07.830Z,18.50
2022-08-27T20:53:36.295Z,18.50
2022-08-27T20:56:04.793Z,18.50
2022-08-27T20:58:52.195Z,18.40
2022-08-27T21:01:20.732Z,18.40
2022-08-27T21:03:49.032Z,18.40
2022-08-27T21:06:23.926Z,18.30
2022-08-27T21:08:54.603Z,18.40
2022-08-27T21:11:22.782Z,18.20
2022-08-27T21:13:56.437Z,18.20
2022-08-27T21:16:25.943Z,18.30
2022-08-27T21:18:55.698Z,18.30
2022-08-27T21:21:24.154Z,18.30
2022-08-27T21:23:52.480Z,18.30
2022-08-27T21:26:22.938Z,18.20
2022-08-27T21:28:55.907Z,18.10
2022-08-27T21:31:24.973Z,18.10
2022-08-27T21:33:53.268Z,18.10
2022-08-27T21:36:21.624Z,18.10
2022-08-27T21:38:50.005Z,18.20
2022-08-27T21:41:18.150Z,18.10
2022-08-27T21:43:46.419Z,18.10
2022-08-27T21:46:16.217Z,18.00
2022-08-27T21:48:44.403Z,18.00
2022-08-27T21:51:24.404Z,18.10
2022-08-27T21:53:52.829Z,18.10
2022-08-27T21:56:21.153Z,18.10
2022-08-27T21:58:49.387Z,18.00
2022-08-27T22:01:19.818Z,17.90
2022-08-27T22:03:50.994Z,17.90
2022-08-27T22:06:19.977Z,17.80
2022-08-27T22:08:48.848Z,17.70
2022-08-27T22:11:22.001Z,17.80
2022-08-27T22:13:52.350Z,17.70
2022-08-27T22:16:22.309Z,17.70
2022-08-27T22:18:54.682Z,17.70
2022-08-27T22:21:23.790Z,17.70
2022-08-27T22:23:52.634Z,17.60
2022-08-27T22:26:22.100Z,17.60
2022-08-27T22:28:50.867Z,17.70
2022-08-27T22:31:19.691Z,17.60
2022-08-27T22:33:49.427Z,17.50
2022-08-27T22:36:17.859Z,17.50
2022-08-27T22:38:46.384Z,17.60
2022-08-27T22:41:18.410Z,17.50
2022-08-27T22:43:47.347Z,17.40
2022-08-27T22:46:15.887Z,17.40
2022-08-27T22:48:44.137Z,17.30
2022-08-27T22:51:13.944Z,17.30
2022-08-27T22:53:42.131Z,17.30
2022-08-27T22:56:10.283Z,17.40
2022-08-27T22:58:38.920Z,17.30
2022-08-27T23:01:07.728Z,17.30
2022-08-27T23:03:35.876Z,17.30
2022-08-27T23:06:04.550Z,17.20
2022-08-27T23:08:34.126Z,17.20
2022-08-27T23:11:03.465Z,17.20
2022-08-27T23:13:32.757Z,17.20
2022-08-27T23:16:01.606Z,17.20
2022-08-27T23:18:30.291Z,17.30
2022-08-27T23:20:58.863Z,17.20
2022-08-27T23:23:29.805Z,17.10
2022-08-27T23:26:18.260Z,17.00
2022-08-27T23:28:48.543Z,17.10
2022-08-27T23:31:17.534Z,17.10
2022-08-27T23:33:46.063Z,17.00
2022-08-27T23:36:14.440Z,17.00
2022-08-27T23:38:42.610Z,16.90
2022-08-27T23:41:12.287Z,16.90
2022-08-27T23:43:40.423Z,16.90
2022-08-27T23:46:09.046Z,16.80
2022-08-27T23:48:39.625Z,16.80
2022-08-27T23:51:10.643Z,16.90
2022-08-27T23:53:39.318Z,16.90
2022-08-27T23:56:08.078Z,16.80
2022-08-27T23:58:37.565Z,16.90
